Torbat-Heydarieh, Iran
Current Conditions -  °F | °C
As of 1:30 AM on Thursday 29 Jan 2015 (Local Time) from OIMM Reporting Station
Haze Haze  
Wind Chill: 25°   Ceiling: Unl
Heat Index: 30°   Visibility: 1.2mi
Dew Point: 30°   Wind: 5mph
Humidity: 100%   Direction: 240°WSW
Pressure: 30"   Gusts: NA
Location:  35.27°N, 59.22°E
Report Text: OIMM 282230Z 24004KT 2000 BR SCT005 M01/M01 Q1016 A3003
Loading
Personal Weather Stations






























Interactive Weather Map New forecast layout! Learn more

10-Day Weather Forecast

Advertisements
Track Severe Weather on mobile